createdAt,value
2019-05-18T00:00:34.603Z,10.39
2019-05-18T00:03:03.283Z,10.46
2019-05-18T00:05:32.137Z,10.51
2019-05-18T00:08:00.640Z,10.52
2019-05-18T00:10:29.187Z,10.52
2019-05-18T00:12:57.835Z,10.48
2019-05-18T00:15:26.508Z,10.47
2019-05-18T00:17:55.094Z,10.52
2019-05-18T00:20:23.671Z,10.62
2019-05-18T00:22:52.354Z,10.62
2019-05-18T00:25:21.000Z,10.61
2019-05-18T00:27:49.573Z,10.66
2019-05-18T00:30:18.390Z,10.70
2019-05-18T00:32:47.036Z,10.74
2019-05-18T00:35:16.756Z,10.79
2019-05-18T00:37:45.555Z,10.77
2019-05-18T00:40:14.394Z,10.81
2019-05-18T00:42:42.947Z,10.83
2019-05-18T00:45:11.898Z,10.89
2019-05-18T00:47:42.103Z,10.90
2019-05-18T00:50:11.410Z,10.86
2019-05-18T00:52:39.922Z,10.81
2019-05-18T00:55:08.966Z,10.76
2019-05-18T00:57:37.644Z,10.74
2019-05-18T01:00:08.353Z,10.74
2019-05-18T01:02:36.923Z,10.77
2019-05-18T01:05:08.800Z,10.65
2019-05-18T01:07:37.455Z,10.61
2019-05-18T01:10:07.718Z,10.63
2019-05-18T01:12:36.368Z,10.57
2019-05-18T01:15:06.921Z,10.50
2019-05-18T01:17:35.569Z,10.41
2019-05-18T01:20:05.945Z,10.38
2019-05-18T01:22:34.741Z,10.34
2019-05-18T01:25:03.399Z,10.25
2019-05-18T01:27:31.939Z,10.23
2019-05-18T01:30:00.506Z,10.19
2019-05-18T01:32:29.603Z,10.17
2019-05-18T01:34:58.273Z,10.13
2019-05-18T01:37:26.773Z,10.08
2019-05-18T01:39:55.283Z,10.04
2019-05-18T01:42:23.952Z,9.98
2019-05-18T01:44:52.586Z,9.92
2019-05-18T01:47:21.088Z,10.02
2019-05-18T01:49:49.645Z,9.93
2019-05-18T01:52:18.288Z,9.87
2019-05-18T01:54:46.933Z,9.80
2019-05-18T01:57:15.475Z,9.77
2019-05-18T01:59:44.113Z,9.78
2019-05-18T02:02:12.751Z,9.77
2019-05-18T02:04:41.497Z,9.75
2019-05-18T02:07:10.161Z,9.74
2019-05-18T02:09:38.658Z,9.74
2019-05-18T02:12:07.354Z,9.74
2019-05-18T02:14:36.008Z,9.77
2019-05-18T02:17:04.770Z,9.76
2019-05-18T02:19:33.355Z,9.74
2019-05-18T02:22:01.994Z,9.65
2019-05-18T02:24:30.636Z,9.63
2019-05-18T02:26:59.277Z,9.75
2019-05-18T02:29:27.843Z,9.83
2019-05-18T02:31:56.596Z,9.83
2019-05-18T02:34:25.141Z,9.77
2019-05-18T02:36:53.771Z,9.63
2019-05-18T02:39:22.405Z,9.72
2019-05-18T02:41:50.952Z,9.77
2019-05-18T02:44:19.457Z,9.77
2019-05-18T02:46:48.102Z,9.77
2019-05-18T02:49:16.879Z,9.78
2019-05-18T02:51:45.446Z,9.80
2019-05-18T02:54:14.089Z,9.82
2019-05-18T02:56:42.765Z,9.83
2019-05-18T02:59:11.400Z,9.84
2019-05-18T03:01:40.041Z,9.85
2019-05-18T03:04:08.649Z,9.90
2019-05-18T03:06:37.297Z,9.86
2019-05-18T03:09:06.932Z,9.91
2019-05-18T03:11:35.903Z,9.93
2019-05-18T03:14:04.948Z,9.92
2019-05-18T03:16:33.975Z,9.81
2019-05-18T03:19:08.034Z,9.87
2019-05-18T03:21:33.767Z,9.90
2019-05-18T03:24:02.417Z,9.93
2019-05-18T03:26:31.058Z,9.96
2019-05-18T03:28:59.663Z,10.01
2019-05-18T03:31:28.314Z,10.01
2019-05-18T03:33:56.986Z,9.87
2019-05-18T03:36:25.471Z,9.91
2019-05-18T03:38:54.151Z,9.77
2019-05-18T03:41:22.836Z,9.77
2019-05-18T03:43:51.476Z,9.81
2019-05-18T03:46:23.823Z,9.93
2019-05-18T03:48:50.315Z,9.88
2019-05-18T03:51:18.950Z,9.99
2019-05-18T03:53:47.479Z,9.95
2019-05-18T03:56:16.160Z,9.97
2019-05-18T03:58:44.804Z,9.82
2019-05-18T04:01:13.321Z,9.81
2019-05-18T04:03:41.905Z,9.90
2019-05-18T04:06:10.557Z,10.11
2019-05-18T04:08:39.205Z,10.21
2019-05-18T04:11:07.973Z,10.31
2019-05-18T04:13:36.547Z,10.33
2019-05-18T04:16:05.194Z,10.33
2019-05-18T04:18:33.877Z,10.36
2019-05-18T04:21:05.430Z,10.38
2019-05-18T04:23:34.003Z,10.45
2019-05-18T04:26:02.703Z,10.49
2019-05-18T04:28:31.433Z,10.62
2019-05-18T04:31:00.008Z,10.72
2019-05-18T04:33:28.699Z,10.81
2019-05-18T04:35:57.272Z,10.87
2019-05-18T04:38:25.772Z,10.93
2019-05-18T04:40:54.466Z,11.11
2019-05-18T04:43:23.132Z,11.06
2019-05-18T04:45:51.696Z,11.23
2019-05-18T04:48:20.235Z,11.14
2019-05-18T04:50:48.879Z,11.15
2019-05-18T04:53:17.572Z,11.27
2019-05-18T04:55:46.307Z,11.34
2019-05-18T04:58:14.924Z,11.33
2019-05-18T05:00:43.621Z,11.36
2019-05-18T05:03:12.298Z,11.09
2019-05-18T05:05:40.797Z,11.07
2019-05-18T05:08:09.295Z,10.72
2019-05-18T05:10:37.969Z,10.68
2019-05-18T05:13:06.612Z,10.54
2019-05-18T05:15:35.252Z,10.45
2019-05-18T05:18:03.940Z,10.50
2019-05-18T05:20:32.444Z,10.46
2019-05-18T05:23:00.947Z,10.46
2019-05-18T05:25:29.645Z,10.65
2019-05-18T05:27:58.364Z,10.61
2019-05-18T05:30:26.871Z,10.85
2019-05-18T05:32:55.479Z,11.11
2019-05-18T05:35:24.135Z,11.12
2019-05-18T05:37:52.777Z,10.71
2019-05-18T05:40:21.423Z,10.96
2019-05-18T05:42:49.957Z,11.57
2019-05-18T05:45:18.568Z,13.03
2019-05-18T05:47:47.258Z,13.87
2019-05-18T05:50:16.015Z,14.08
2019-05-18T05:52:44.663Z,13.70
2019-05-18T05:55:13.478Z,13.64
2019-05-18T05:57:41.982Z,13.79
2019-05-18T06:00:11.098Z,14.48
2019-05-18T06:02:39.835Z,15.85
2019-05-18T06:05:08.976Z,16.46
2019-05-18T06:07:37.542Z,16.72
2019-05-18T06:10:07.614Z,16.06
2019-05-18T06:12:36.273Z,16.15
2019-05-18T06:15:07.988Z,17.17
2019-05-18T06:17:36.603Z,19.85
2019-05-18T06:20:09.176Z,21.70
2019-05-18T06:22:37.817Z,22.62
2019-05-18T06:25:08.178Z,23.53
2019-05-18T06:27:36.891Z,24.57
2019-05-18T06:30:07.324Z,25.60
2019-05-18T06:32:35.923Z,26.31
2019-05-18T06:35:05.066Z,25.59
2019-05-18T06:37:33.702Z,24.76
2019-05-18T06:40:02.380Z,25.02
2019-05-18T06:42:30.973Z,24.35
2019-05-18T06:44:59.614Z,24.67
2019-05-18T06:47:28.503Z,24.92
2019-05-18T06:49:57.210Z,25.38
2019-05-18T06:52:25.881Z,25.85
2019-05-18T06:54:54.563Z,26.24
2019-05-18T06:57:25.296Z,25.00
2019-05-18T06:59:54.670Z,23.54
2019-05-18T07:02:23.187Z,23.72
2019-05-18T07:04:52.208Z,24.55
2019-05-18T07:07:20.982Z,25.67
2019-05-18T07:09:49.552Z,26.57
2019-05-18T07:12:18.060Z,26.40
2019-05-18T07:14:46.698Z,26.94
2019-05-18T07:17:15.382Z,26.95
2019-05-18T07:19:43.886Z,26.80
2019-05-18T07:22:12.520Z,26.80
2019-05-18T07:24:41.197Z,26.90
2019-05-18T07:27:09.841Z,26.60
2019-05-18T07:29:38.346Z,25.65
2019-05-18T07:32:08.024Z,24.73
2019-05-18T07:34:36.658Z,24.61
2019-05-18T07:37:05.398Z,25.01
2019-05-18T07:39:36.169Z,25.40
2019-05-18T07:42:04.526Z,25.29
2019-05-18T07:44:33.175Z,24.91
2019-05-18T07:47:01.907Z,24.70
2019-05-18T07:49:30.512Z,24.45
2019-05-18T07:51:59.094Z,23.78
2019-05-18T07:54:27.634Z,24.68
2019-05-18T07:56:56.292Z,24.28
2019-05-18T07:59:24.929Z,24.10
2019-05-18T08:01:53.539Z,23.96
2019-05-18T08:04:22.108Z,23.96
2019-05-18T08:06:51.937Z,24.35
2019-05-18T08:09:20.626Z,24.16
2019-05-18T08:11:49.193Z,23.35
2019-05-18T08:14:17.695Z,23.74
2019-05-18T08:16:46.307Z,23.59
2019-05-18T08:19:15.139Z,24.10
2019-05-18T08:21:52.637Z,24.00
2019-05-18T08:24:13.980Z,24.22
2019-05-18T08:26:42.568Z,24.76
2019-05-18T08:29:11.164Z,24.73
2019-05-18T08:31:39.729Z,23.68
2019-05-18T08:34:08.395Z,23.60
2019-05-18T08:36:37.584Z,23.49
2019-05-18T08:39:06.705Z,23.75
2019-05-18T08:41:35.294Z,24.02
2019-05-18T08:44:03.959Z,24.39
2019-05-18T08:46:32.600Z,24.05
2019-05-18T08:49:01.251Z,24.37
2019-05-18T08:51:29.878Z,24.87
2019-05-18T08:53:58.514Z,24.00
2019-05-18T08:56:27.078Z,24.21
2019-05-18T08:58:55.612Z,24.57
2019-05-18T09:01:24.183Z,23.50
2019-05-18T09:03:52.816Z,23.98
2019-05-18T09:06:21.489Z,23.98
2019-05-18T09:08:50.383Z,23.36
2019-05-18T09:11:18.946Z,22.97
2019-05-18T09:13:47.501Z,22.85
2019-05-18T09:16:16.139Z,22.30
2019-05-18T09:18:44.776Z,22.32
2019-05-18T09:21:13.447Z,22.47
2019-05-18T09:23:42.020Z,22.76
2019-05-18T09:26:10.590Z,23.10
2019-05-18T09:28:39.339Z,22.72
2019-05-18T09:31:08.015Z,22.68
2019-05-18T09:33:36.630Z,22.68
2019-05-18T09:36:05.408Z,22.76
2019-05-18T09:38:34.053Z,22.51
2019-05-18T09:41:02.716Z,22.22
2019-05-18T09:43:31.257Z,22.18
2019-05-18T09:45:59.821Z,22.24
2019-05-18T09:48:28.393Z,22.09
2019-05-18T09:50:56.995Z,22.07
2019-05-18T09:53:25.639Z,21.59
2019-05-18T09:55:54.203Z,21.56
2019-05-18T09:58:22.975Z,21.86
2019-05-18T10:00:51.546Z,21.78
2019-05-18T10:03:20.378Z,21.66
2019-05-18T10:05:49.064Z,21.57
2019-05-18T10:08:17.560Z,21.61
2019-05-18T10:10:46.401Z,22.00
2019-05-18T10:13:15.086Z,22.64
2019-05-18T10:15:43.657Z,23.08
2019-05-18T10:18:12.158Z,23.26
2019-05-18T10:20:40.835Z,23.25
2019-05-18T10:23:13.730Z,22.57
2019-05-18T10:25:39.797Z,22.63
2019-05-18T10:28:08.509Z,22.65
2019-05-18T10:30:37.209Z,22.74
2019-05-18T10:33:05.851Z,22.13
2019-05-18T10:35:34.444Z,22.49
2019-05-18T10:38:03.080Z,22.72
2019-05-18T10:40:31.718Z,22.34
2019-05-18T10:43:00.248Z,21.81
2019-05-18T10:45:28.884Z,21.89
2019-05-18T10:47:57.804Z,22.24
2019-05-18T10:50:26.444Z,22.40
2019-05-18T10:52:54.944Z,22.53
2019-05-18T10:55:23.633Z,22.61
2019-05-18T10:57:52.324Z,22.49
2019-05-18T11:00:21.319Z,22.49
2019-05-18T11:02:50.083Z,22.08
2019-05-18T11:05:19.115Z,22.45
2019-05-18T11:07:47.694Z,22.50
2019-05-18T11:10:18.100Z,22.30
2019-05-18T11:12:46.859Z,22.17
2019-05-18T11:15:15.840Z,21.91
2019-05-18T11:17:44.396Z,22.30
2019-05-18T11:20:14.708Z,22.63
2019-05-18T11:22:43.478Z,22.77
2019-05-18T11:25:12.404Z,22.97
2019-05-18T11:27:41.008Z,23.06
2019-05-18T11:30:10.672Z,23.31
2019-05-18T11:32:39.347Z,23.63
2019-05-18T11:35:09.006Z,23.84
2019-05-18T11:37:37.499Z,23.90
2019-05-18T11:40:07.427Z,23.98
2019-05-18T11:42:36.329Z,24.01
2019-05-18T11:45:10.034Z,24.03
2019-05-18T11:47:38.722Z,23.82
2019-05-18T11:50:09.565Z,23.84
2019-05-18T11:52:38.194Z,23.78
2019-05-18T11:55:07.562Z,23.74
2019-05-18T11:57:36.236Z,23.79
2019-05-18T12:00:07.749Z,23.91
2019-05-18T12:02:36.351Z,24.14
2019-05-18T12:05:06.876Z,24.13
2019-05-18T12:07:35.512Z,24.09
2019-05-18T12:10:06.246Z,23.99
2019-05-18T12:12:34.786Z,24.15
2019-05-18T12:15:04.314Z,24.33
2019-05-18T12:17:33.020Z,24.54
2019-05-18T12:20:01.620Z,24.73
2019-05-18T12:22:30.104Z,24.78
2019-05-18T12:24:58.660Z,25.00
2019-05-18T12:27:27.294Z,25.30
2019-05-18T12:29:55.851Z,25.07
2019-05-18T12:32:24.598Z,25.54
2019-05-18T12:34:53.160Z,25.76
2019-05-18T12:37:22.865Z,26.01
2019-05-18T12:39:53.440Z,26.06
2019-05-18T12:42:22.460Z,25.74
2019-05-18T12:44:51.097Z,25.27
2019-05-18T12:47:19.876Z,25.07
2019-05-18T12:49:48.584Z,25.10
2019-05-18T12:52:17.080Z,25.40
2019-05-18T12:54:47.092Z,25.71
2019-05-18T12:57:15.952Z,26.14
2019-05-18T12:59:44.515Z,26.13
2019-05-18T13:02:13.231Z,26.13
2019-05-18T13:04:42.142Z,26.27
2019-05-18T13:07:10.797Z,26.31
2019-05-18T13:09:39.424Z,26.52
2019-05-18T13:12:11.561Z,26.53
2019-05-18T13:14:38.614Z,26.62
2019-05-18T13:17:07.213Z,26.53
2019-05-18T13:19:35.773Z,26.70
2019-05-18T13:22:04.474Z,26.95
2019-05-18T13:24:44.856Z,26.85
2019-05-18T13:27:03.423Z,25.66
2019-05-18T13:29:32.159Z,25.66
2019-05-18T13:32:00.842Z,25.08
2019-05-18T13:34:29.405Z,24.59
2019-05-18T13:36:57.920Z,24.17
2019-05-18T13:39:26.587Z,24.10
2019-05-18T13:41:55.288Z,24.10
2019-05-18T13:44:23.853Z,24.10
2019-05-18T13:46:52.467Z,24.19
2019-05-18T13:49:21.027Z,24.15
2019-05-18T13:51:49.520Z,24.27
2019-05-18T13:54:18.137Z,24.49
2019-05-18T13:56:46.761Z,24.61
2019-05-18T13:59:15.397Z,24.93
2019-05-18T14:01:43.941Z,25.15
2019-05-18T14:04:12.513Z,25.28
2019-05-18T14:06:41.147Z,25.41
2019-05-18T14:09:09.741Z,25.45
2019-05-18T14:11:38.317Z,25.52
2019-05-18T14:14:06.892Z,25.42
2019-05-18T14:16:35.805Z,25.44
2019-05-18T14:19:04.438Z,25.61
2019-05-18T14:21:33.073Z,25.66
2019-05-18T14:24:01.679Z,25.79
2019-05-18T14:26:30.307Z,26.00
2019-05-18T14:28:58.870Z,25.97
2019-05-18T14:31:27.540Z,25.84
2019-05-18T14:33:56.210Z,25.94
2019-05-18T14:36:24.723Z,25.82
2019-05-18T14:38:56.862Z,26.07
2019-05-18T14:41:23.746Z,26.07
2019-05-18T14:43:52.390Z,26.29
2019-05-18T14:46:21.086Z,25.98
2019-05-18T14:48:49.655Z,26.07
2019-05-18T14:51:18.297Z,26.27
2019-05-18T14:53:46.958Z,26.03
2019-05-18T14:56:15.482Z,25.49
2019-05-18T14:58:44.034Z,25.33
2019-05-18T15:01:12.705Z,25.09
2019-05-18T15:03:41.324Z,24.74
2019-05-18T15:06:09.958Z,24.33
2019-05-18T15:08:38.647Z,24.10
2019-05-18T15:11:07.446Z,24.06
2019-05-18T15:13:36.022Z,24.09
2019-05-18T15:16:04.679Z,24.00
2019-05-18T15:18:33.241Z,24.17
2019-05-18T15:21:01.741Z,24.10
2019-05-18T15:23:30.417Z,24.09
2019-05-18T15:25:59.032Z,24.05
2019-05-18T15:28:27.701Z,24.15
2019-05-18T15:30:56.291Z,24.20
2019-05-18T15:33:24.935Z,24.20
2019-05-18T15:35:53.566Z,24.15
2019-05-18T15:38:22.299Z,24.11
2019-05-18T15:40:50.792Z,23.97
2019-05-18T15:43:19.435Z,23.69
2019-05-18T15:45:48.132Z,23.61
2019-05-18T15:48:16.776Z,23.53
2019-05-18T15:50:45.410Z,23.47
2019-05-18T15:53:14.012Z,23.40
2019-05-18T15:55:42.729Z,23.40
2019-05-18T15:58:11.321Z,23.46
2019-05-18T16:00:39.972Z,23.62
2019-05-18T16:03:08.537Z,23.64
2019-05-18T16:05:37.168Z,23.77
2019-05-18T16:08:05.828Z,23.69
2019-05-18T16:10:34.464Z,23.71
2019-05-18T16:13:03.119Z,23.64
2019-05-18T16:15:31.793Z,23.76
2019-05-18T16:18:00.345Z,23.67
2019-05-18T16:20:28.980Z,23.61
2019-05-18T16:22:57.576Z,23.28
2019-05-18T16:25:26.208Z,23.18
2019-05-18T16:27:54.839Z,23.14
2019-05-18T16:30:23.505Z,23.07
2019-05-18T16:32:52.147Z,23.05
2019-05-18T16:35:20.875Z,23.03
2019-05-18T16:37:49.599Z,23.11
2019-05-18T16:40:18.811Z,23.20
2019-05-18T16:42:47.518Z,23.08
2019-05-18T16:45:16.618Z,23.04
2019-05-18T16:47:45.246Z,22.92
2019-05-18T16:50:14.174Z,22.88
2019-05-18T16:52:42.787Z,22.90
2019-05-18T16:55:11.782Z,22.88
2019-05-18T16:57:40.394Z,22.77
2019-05-18T17:00:11.215Z,22.69
2019-05-18T17:02:39.963Z,22.60
2019-05-18T17:05:09.503Z,22.59
2019-05-18T17:07:38.166Z,22.49
2019-05-18T17:10:07.304Z,22.43
2019-05-18T17:12:35.870Z,22.42
2019-05-18T17:15:06.830Z,22.31
2019-05-18T17:17:35.702Z,22.26
2019-05-18T17:20:06.734Z,22.22
2019-05-18T17:22:35.332Z,22.16
2019-05-18T17:25:05.175Z,22.08
2019-05-18T17:27:33.737Z,21.99
2019-05-18T17:30:02.513Z,21.95
2019-05-18T17:32:31.274Z,21.90
2019-05-18T17:34:59.755Z,21.80
2019-05-18T17:37:28.480Z,21.78
2019-05-18T17:39:57.100Z,21.74
2019-05-18T17:42:25.757Z,21.64
2019-05-18T17:44:54.443Z,21.56
2019-05-18T17:47:23.017Z,21.35
2019-05-18T17:49:51.759Z,21.16
2019-05-18T17:52:20.419Z,21.01
2019-05-18T17:54:48.908Z,20.87
2019-05-18T17:57:17.614Z,20.75
2019-05-18T17:59:49.420Z,20.60
2019-05-18T18:02:16.577Z,20.59
2019-05-18T18:04:45.112Z,20.55
2019-05-18T18:07:13.720Z,20.45
2019-05-18T18:09:42.353Z,20.34
2019-05-18T18:12:10.908Z,20.22
2019-05-18T18:14:39.729Z,20.11
2019-05-18T18:17:08.354Z,19.99
2019-05-18T18:19:36.985Z,20.01
2019-05-18T18:22:05.649Z,19.95
2019-05-18T18:24:34.278Z,19.80
2019-05-18T18:27:02.841Z,19.70
2019-05-18T18:29:31.363Z,19.61
2019-05-18T18:31:59.991Z,19.60
2019-05-18T18:34:28.622Z,19.50
2019-05-18T18:36:57.218Z,19.41
2019-05-18T18:39:25.785Z,19.36
2019-05-18T18:41:54.368Z,19.34
2019-05-18T18:44:23.047Z,19.20
2019-05-18T18:46:51.655Z,19.06
2019-05-18T18:49:20.172Z,18.95
2019-05-18T18:51:48.754Z,18.99
2019-05-18T18:54:17.386Z,18.94
2019-05-18T18:56:45.948Z,18.83
2019-05-18T18:59:14.557Z,18.71
2019-05-18T19:01:43.121Z,18.71
2019-05-18T19:04:12.049Z,18.66
2019-05-18T19:06:40.698Z,18.64
2019-05-18T19:09:09.319Z,18.57
2019-05-18T19:11:37.879Z,18.72
2019-05-18T19:14:06.511Z,18.65
2019-05-18T19:16:35.076Z,18.54
2019-05-18T19:19:03.760Z,18.59
2019-05-18T19:21:32.398Z,18.66
2019-05-18T19:24:00.891Z,18.65
2019-05-18T19:26:29.474Z,18.68
2019-05-18T19:28:58.096Z,18.60
2019-05-18T19:31:26.665Z,18.48
2019-05-18T19:33:55.188Z,18.48
2019-05-18T19:36:23.739Z,18.53
2019-05-18T19:38:52.378Z,18.59
2019-05-18T19:41:21.056Z,18.63
2019-05-18T19:43:49.614Z,18.54
2019-05-18T19:46:18.180Z,18.51
2019-05-18T19:48:46.702Z,18.54
2019-05-18T19:51:16.137Z,18.51
2019-05-18T19:53:44.968Z,18.56
2019-05-18T19:56:13.553Z,18.44
2019-05-18T19:58:42.111Z,18.25
2019-05-18T20:01:10.683Z,17.94
2019-05-18T20:03:39.352Z,17.96
2019-05-18T20:06:07.983Z,18.08
2019-05-18T20:08:36.549Z,17.96
2019-05-18T20:11:05.203Z,17.98
2019-05-18T20:13:33.827Z,17.80
2019-05-18T20:16:02.486Z,17.64
2019-05-18T20:18:31.014Z,17.47
2019-05-18T20:20:59.640Z,17.56
2019-05-18T20:23:28.232Z,17.48
2019-05-18T20:25:56.828Z,17.33
2019-05-18T20:28:25.469Z,17.22
2019-05-18T20:30:54.106Z,17.11
2019-05-18T20:33:22.628Z,17.17
2019-05-18T20:35:51.186Z,17.21
2019-05-18T20:38:19.844Z,17.13
2019-05-18T20:40:48.454Z,17.04
2019-05-18T20:43:17.028Z,16.93
2019-05-18T20:45:45.602Z,16.86
2019-05-18T20:48:16.910Z,16.69
2019-05-18T20:50:44.516Z,16.76
2019-05-18T20:53:13.065Z,16.71
2019-05-18T20:55:41.702Z,16.62
2019-05-18T20:58:10.340Z,16.63
2019-05-18T21:00:39.076Z,16.67
2019-05-18T21:03:07.709Z,16.74
2019-05-18T21:05:36.283Z,16.77
2019-05-18T21:08:04.954Z,16.71
2019-05-18T21:10:33.518Z,16.82
2019-05-18T21:13:02.295Z,16.90
2019-05-18T21:15:30.962Z,16.89
2019-05-18T21:17:59.530Z,16.93
2019-05-18T21:20:28.120Z,16.78
2019-05-18T21:22:56.774Z,16.71
2019-05-18T21:25:25.346Z,16.72
2019-05-18T21:27:53.841Z,16.75
2019-05-18T21:30:22.518Z,16.73
2019-05-18T21:32:51.142Z,16.75
2019-05-18T21:35:19.721Z,16.83
2019-05-18T21:37:48.255Z,16.88
2019-05-18T21:40:16.885Z,16.74
2019-05-18T21:42:45.446Z,16.80
2019-05-18T21:45:14.716Z,16.83
2019-05-18T21:47:43.347Z,16.88
2019-05-18T21:50:12.468Z,16.87
2019-05-18T21:52:42.069Z,16.87
2019-05-18T21:55:11.522Z,16.91
2019-05-18T21:57:40.151Z,17.08
2019-05-18T22:00:09.638Z,17.10
2019-05-18T22:02:38.275Z,16.96
2019-05-18T22:05:07.209Z,16.97
2019-05-18T22:07:35.874Z,16.92
2019-05-18T22:10:07.801Z,16.83
2019-05-18T22:12:36.312Z,16.93
2019-05-18T22:15:06.662Z,16.99
2019-05-18T22:17:36.977Z,16.91
2019-05-18T22:20:07.073Z,16.98
2019-05-18T22:22:35.682Z,16.95
2019-05-18T22:25:04.577Z,16.87
2019-05-18T22:27:33.073Z,16.89
2019-05-18T22:30:01.678Z,16.89
2019-05-18T22:32:30.315Z,16.82
2019-05-18T22:34:58.931Z,16.87
2019-05-18T22:37:27.431Z,16.80
2019-05-18T22:39:55.991Z,16.78
2019-05-18T22:42:24.774Z,16.73
2019-05-18T22:44:53.373Z,16.58
2019-05-18T22:47:21.885Z,16.58
2019-05-18T22:49:50.427Z,16.58
2019-05-18T22:52:19.296Z,16.64
2019-05-18T22:54:47.867Z,16.59
2019-05-18T22:57:16.392Z,16.52
2019-05-18T22:59:45.101Z,16.56
2019-05-18T23:02:13.745Z,16.45
2019-05-18T23:04:42.314Z,16.41
2019-05-18T23:07:10.846Z,16.31
2019-05-18T23:09:39.403Z,16.24
2019-05-18T23:12:08.068Z,16.37
2019-05-18T23:14:36.682Z,16.46
2019-05-18T23:17:05.430Z,16.17
2019-05-18T23:19:33.938Z,16.06
2019-05-18T23:22:02.581Z,16.25
2019-05-18T23:24:31.136Z,16.07
2019-05-18T23:26:59.673Z,15.90
2019-05-18T23:29:28.236Z,15.82
2019-05-18T23:31:56.858Z,15.98
2019-05-18T23:34:25.466Z,15.80
2019-05-18T23:36:53.967Z,15.74
2019-05-18T23:39:22.649Z,15.69
2019-05-18T23:41:51.328Z,15.68
2019-05-18T23:44:19.896Z,15.80
2019-05-18T23:46:48.541Z,15.88
2019-05-18T23:49:17.242Z,15.73
2019-05-18T23:51:45.849Z,15.67
2019-05-18T23:54:14.420Z,15.62
2019-05-18T23:56:43.090Z,15.53
2019-05-18T23:59:11.826Z,15.48
